Time;durP1;ratioP1;P1;durP2;ratioP2;P2;SDS_P1;SDS_P2;PMS_P1;PMS_P2;Temp;Humidity;BMP_temperature;BMP_pressure;BME280_temperature;BME280_humidity;BME280_pressure;Samples;Min_cycle;Max_cycle;Signal;HPM_P1;HPM_P2
2021/10/04 00:00:44;;;;;;;13.63;8.10;;;16.30;99.90;;;;;;5015866;28;20034;-51
2021/10/04 00:03:10;;;;;;;11.55;8.05;;;16.30;99.90;;;;;;5015662;28;20080;-52
2021/10/04 00:05:35;;;;;;;12.43;8.65;;;16.20;99.90;;;;;;5015842;28;20117;-50
2021/10/04 00:08:01;;;;;;;13.27;8.40;;;16.20;99.90;;;;;;5014454;28;20054;-48
2021/10/04 00:10:27;;;;;;;12.45;8.43;;;16.20;99.90;;;;;;5015754;28;20193;-50
2021/10/04 00:12:53;;;;;;;15.57;9.10;;;16.20;99.90;;;;;;5014329;28;20030;-51
2021/10/04 00:15:24;;;;;;;12.65;8.38;;;16.20;99.90;;;;;;5030588;28;20035;-51
2021/10/04 00:17:50;;;;;;;11.02;8.23;;;16.30;99.90;;;;;;5035137;28;20057;-50
2021/10/04 00:20:17;;;;;;;13.70;9.80;;;16.20;99.90;;;;;;5035177;28;20060;-51
2021/10/04 00:22:43;;;;;;;14.45;8.80;;;16.30;99.90;;;;;;5034106;28;20064;-48
2021/10/04 00:25:10;;;;;;;11.55;8.57;;;16.20;99.90;;;;;;5035167;28;20032;-54
2021/10/04 00:27:36;;;;;;;12.15;7.65;;;16.20;99.90;;;;;;5035055;28;20026;-52
2021/10/04 00:30:05;;;;;;;13.32;8.88;;;16.30;99.90;;;;;;5035100;28;20029;-53
2021/10/04 00:32:36;;;;;;;12.43;8.60;;;16.30;99.90;;;;;;5034843;28;20504;-47
2021/10/04 00:35:03;;;;;;;10.90;8.43;;;16.30;99.90;;;;;;5034923;28;20029;-51
2021/10/04 00:37:29;;;;;;;12.38;8.95;;;16.30;99.90;;;;;;5034146;28;20151;-49
2021/10/04 00:39:55;;;;;;;9.48;7.50;;;16.30;99.90;;;;;;5034559;28;20029;-53
2021/10/04 00:42:21;;;;;;;11.13;7.78;;;16.30;99.90;;;;;;5034729;28;20127;-52
2021/10/04 00:44:50;;;;;;;15.38;10.27;;;16.30;99.90;;;;;;5034921;28;20022;-53
2021/10/04 00:47:16;;;;;;;12.00;8.63;;;16.30;99.90;;;;;;5034541;28;20025;-51
2021/10/04 00:49:43;;;;;;;12.13;8.15;;;16.40;99.90;;;;;;5016476;28;20030;-50
2021/10/04 00:52:08;;;;;;;13.00;8.40;;;16.40;99.90;;;;;;5014797;28;20030;-50
2021/10/04 00:54:34;;;;;;;13.90;9.63;;;16.30;99.90;;;;;;5013862;28;20091;-51
2021/10/04 00:57:00;;;;;;;11.20;8.32;;;16.40;99.90;;;;;;5014766;28;20112;-51
2021/10/04 00:59:25;;;;;;;13.98;9.55;;;16.40;99.90;;;;;;5014737;28;20160;-53
2021/10/04 01:01:52;;;;;;;12.45;8.82;;;16.40;99.90;;;;;;5014438;28;20038;-50
2021/10/04 01:04:17;;;;;;;12.70;8.68;;;16.40;99.90;;;;;;5014680;28;20022;-51
2021/10/04 01:06:43;;;;;;;10.68;8.40;;;16.30;99.90;;;;;;5014572;28;20431;-49
2021/10/04 01:09:08;;;;;;;14.30;9.55;;;16.30;99.90;;;;;;5013438;28;20030;-51
2021/10/04 01:11:34;;;;;;;10.70;7.57;;;16.30;99.90;;;;;;5014653;28;20061;-51
2021/10/04 01:13:59;;;;;;;11.68;8.68;;;16.30;99.90;;;;;;5018806;28;20030;-48
2021/10/04 01:16:25;;;;;;;11.88;8.73;;;16.30;99.90;;;;;;5033122;28;20504;-52
2021/10/04 01:18:50;;;;;;;14.77;9.57;;;16.20;99.90;;;;;;5034101;28;20053;-52
2021/10/04 01:21:16;;;;;;;13.00;8.50;;;16.20;99.90;;;;;;5034014;28;20033;-53
2021/10/04 01:23:42;;;;;;;11.80;8.48;;;16.20;99.90;;;;;;5033073;28;20033;-48
2021/10/04 01:26:08;;;;;;;11.23;8.35;;;16.20;99.90;;;;;;5034059;28;20030;-52
2021/10/04 01:28:33;;;;;;;15.27;9.85;;;16.10;99.90;;;;;;5033920;28;20013;-49
2021/10/04 01:30:59;;;;;;;10.80;7.75;;;16.10;99.90;;;;;;5033898;28;20025;-48
2021/10/04 01:33:25;;;;;;;13.95;9.88;;;16.10;99.90;;;;;;5033830;28;20076;-49
2021/10/04 01:35:50;;;;;;;14.57;9.07;;;16.10;99.90;;;;;;5034007;28;20053;-55
2021/10/04 01:38:16;;;;;;;15.10;10.55;;;16.10;99.90;;;;;;5032687;28;20444;-48
2021/10/04 01:40:43;;;;;;;10.90;7.95;;;16.10;99.90;;;;;;5033710;28;20033;-53
2021/10/04 01:43:12;;;;;;;13.93;9.27;;;16.10;99.90;;;;;;5033580;28;20481;-48
2021/10/04 01:45:39;;;;;;;15.30;10.63;;;16.10;99.90;;;;;;5033596;28;20524;-47
2021/10/04 01:48:05;;;;;;;11.98;8.57;;;16.00;99.90;;;;;;5028640;28;20077;-52
2021/10/04 01:50:33;;;;;;;13.48;9.65;;;16.00;99.90;;;;;;5013911;28;20393;-52
2021/10/04 01:52:58;;;;;;;15.00;9.70;;;16.10;99.90;;;;;;5012828;28;20469;-53
2021/10/04 01:55:24;;;;;;;12.13;8.27;;;16.00;99.90;;;;;;5013576;28;20025;-49
2021/10/04 01:57:50;;;;;;;14.73;10.32;;;16.00;99.90;;;;;;5013687;28;20473;-53
2021/10/04 02:00:17;;;;;;;11.95;8.65;;;16.00;99.90;;;;;;5013479;28;20030;-50
2021/10/04 02:02:45;;;;;;;12.43;9.63;;;16.00;99.90;;;;;;5013630;28;20061;-53
2021/10/04 02:05:11;;;;;;;12.93;9.27;;;16.00;99.90;;;;;;5012203;28;20057;-47
2021/10/04 02:07:37;;;;;;;12.93;9.70;;;16.00;99.90;;;;;;5012211;28;20096;-50
2021/10/04 02:10:08;;;;;;;14.55;9.38;;;16.00;99.90;;;;;;5013499;28;20026;-51
2021/10/04 02:12:34;;;;;;;11.40;8.00;;;16.10;99.90;;;;;;5012692;28;20081;-49
2021/10/04 02:14:59;;;;;;;12.63;9.10;;;16.10;99.90;;;;;;5025943;28;20053;-55
2021/10/04 02:17:26;;;;;;;11.68;7.53;;;16.00;99.90;;;;;;5032689;28;20468;-50
2021/10/04 02:19:51;;;;;;;15.80;10.80;;;16.00;99.90;;;;;;5033325;28;20577;-51
2021/10/04 02:22:17;;;;;;;14.82;10.05;;;16.00;99.90;;;;;;5032545;28;20061;-54
2021/10/04 02:24:42;;;;;;;13.73;9.32;;;16.00;99.90;;;;;;5032017;28;20473;-50
2021/10/04 02:27:08;;;;;;;15.07;9.35;;;15.90;99.90;;;;;;5032741;28;20017;-52
2021/10/04 02:29:33;;;;;;;11.65;8.50;;;15.90;99.90;;;;;;5032703;28;20037;-48
2021/10/04 02:31:59;;;;;;;12.32;8.23;;;15.90;99.90;;;;;;5033013;28;20022;-52
2021/10/04 02:34:24;;;;;;;13.93;9.40;;;15.90;99.90;;;;;;5032700;28;20052;-53
2021/10/04 02:36:50;;;;;;;14.02;8.70;;;15.90;99.90;;;;;;5032921;28;20381;-55
2021/10/04 02:39:16;;;;;;;12.07;8.93;;;15.90;99.90;;;;;;5031690;28;20036;-53
2021/10/04 02:41:41;;;;;;;12.43;8.35;;;15.80;99.90;;;;;;5032525;28;20035;-50
2021/10/04 02:44:07;;;;;;;10.07;7.72;;;15.80;99.90;;;;;;5032592;28;20033;-54
2021/10/04 02:46:32;;;;;;;14.18;7.60;;;15.80;99.90;;;;;;5032573;28;20025;-50
2021/10/04 02:48:58;;;;;;;10.40;6.28;;;15.80;99.90;;;;;;5020332;28;20393;-51
2021/10/04 02:51:23;;;;;;;10.55;5.80;;;15.80;99.90;;;;;;5012851;28;20034;-49
2021/10/04 02:53:49;;;;;;;8.13;5.78;;;15.80;99.90;;;;;;5011938;28;20045;-50
2021/10/04 02:56:14;;;;;;;7.78;6.00;;;15.80;99.90;;;;;;5012723;28;20034;-52
2021/10/04 02:58:40;;;;;;;8.00;5.50;;;15.80;99.90;;;;;;5012682;28;20432;-53
2021/10/04 03:01:05;;;;;;;6.38;4.78;;;15.80;99.90;;;;;;5012839;28;20026;-50
2021/10/04 03:03:31;;;;;;;5.28;3.85;;;15.80;99.90;;;;;;5012666;28;20033;-52
2021/10/04 03:05:56;;;;;;;6.18;4.57;;;15.80;99.90;;;;;;5012900;28;20026;-52
2021/10/04 03:08:22;;;;;;;5.90;4.43;;;15.80;99.90;;;;;;5011553;28;20409;-50
2021/10/04 03:10:47;;;;;;;4.78;3.67;;;15.80;99.90;;;;;;5012840;28;20041;-55
2021/10/04 03:13:13;;;;;;;5.40;3.85;;;15.80;99.90;;;;;;5012752;28;20477;-50
2021/10/04 03:15:38;;;;;;;4.45;3.08;;;15.80;99.90;;;;;;5030392;28;20037;-53
2021/10/04 03:18:05;;;;;;;5.22;3.90;;;15.80;99.90;;;;;;5032311;28;20277;-50
2021/10/04 03:20:30;;;;;;;6.43;3.75;;;15.80;99.90;;;;;;5032163;28;20053;-51
2021/10/04 03:22:56;;;;;;;4.80;3.17;;;15.80;99.90;;;;;;5031356;28;20452;-51
2021/10/04 03:25:23;;;;;;;4.20;3.20;;;15.80;99.90;;;;;;5033703;28;20029;-49
2021/10/04 03:27:49;;;;;;;4.13;3.03;;;15.80;99.90;;;;;;5035996;28;20049;-52
2021/10/04 03:30:14;;;;;;;4.53;3.20;;;15.80;99.90;;;;;;5036325;28;20068;-48
2021/10/04 03:32:40;;;;;;;3.85;2.83;;;15.80;99.90;;;;;;5036196;28;20022;-48
2021/10/04 03:35:07;;;;;;;4.90;3.05;;;15.80;99.90;;;;;;5036039;28;20029;-53
2021/10/04 03:37:33;;;;;;;3.47;2.75;;;15.80;99.90;;;;;;5035158;28;20650;-48
2021/10/04 03:39:59;;;;;;;3.35;2.40;;;15.80;99.90;;;;;;5035980;28;20033;-49
2021/10/04 03:42:25;;;;;;;5.18;2.33;;;15.80;99.90;;;;;;5035539;28;20076;-49
2021/10/04 03:44:50;;;;;;;3.42;2.72;;;15.70;99.90;;;;;;5035922;28;20026;-48
2021/10/04 03:47:16;;;;;;;4.70;2.30;;;15.70;99.90;;;;;;5036016;28;20029;-55
2021/10/04 03:49:42;;;;;;;2.72;2.30;;;15.70;99.90;;;;;;5017511;28;20037;-47
2021/10/04 03:52:07;;;;;;;3.75;2.20;;;15.70;99.90;;;;;;5015879;28;20026;-52
2021/10/04 03:54:33;;;;;;;2.13;1.90;;;15.70;99.90;;;;;;5014843;28;20034;-54
2021/10/04 03:56:58;;;;;;;2.55;1.90;;;15.70;99.90;;;;;;5015871;28;20034;-50
2021/10/04 03:59:24;;;;;;;2.35;1.88;;;15.70;99.90;;;;;;5015794;28;20033;-54
2021/10/04 04:01:49;;;;;;;2.08;1.55;;;15.60;99.90;;;;;;5015934;28;20026;-49
2021/10/04 04:04:15;;;;;;;2.47;1.80;;;15.60;99.90;;;;;;5015802;28;20026;-48
2021/10/04 04:06:41;;;;;;;1.63;1.38;;;15.60;99.90;;;;;;5015740;28;20051;-55
2021/10/04 04:09:07;;;;;;;2.22;1.60;;;15.60;99.90;;;;;;5014817;28;20022;-49
2021/10/04 04:11:32;;;;;;;1.85;1.40;;;15.60;99.90;;;;;;5015563;28;20032;-51
2021/10/04 04:13:58;;;;;;;2.40;1.55;;;15.60;99.90;;;;;;5019692;28;20030;-49
2021/10/04 04:16:24;;;;;;;2.35;1.10;;;15.60;99.90;;;;;;5023432;28;20501;-52
2021/10/04 04:18:49;;;;;;;1.58;1.45;;;15.60;99.90;;;;;;5034972;28;20037;-51
2021/10/04 04:21:15;;;;;;;1.58;1.20;;;15.60;99.90;;;;;;5035131;28;20133;-53
2021/10/04 04:23:40;;;;;;;1.15;0.82;;;15.60;99.90;;;;;;5034089;28;20486;-51
2021/10/04 04:26:06;;;;;;;2.42;1.63;;;15.60;99.90;;;;;;5034929;28;20033;-53
2021/10/04 04:28:32;;;;;;;1.33;1.02;;;15.60;99.90;;;;;;5020796;28;20034;-47
2021/10/04 04:30:58;;;;;;;2.45;1.17;;;15.60;99.90;;;;;;5015378;28;20030;-48
2021/10/04 04:33:24;;;;;;;1.73;1.23;;;15.60;99.90;;;;;;5015219;28;20022;-52
2021/10/04 04:35:49;;;;;;;1.13;1.02;;;15.60;99.90;;;;;;5014963;28;20034;-50
2021/10/04 04:38:15;;;;;;;1.13;0.98;;;15.60;99.90;;;;;;5014166;28;20121;-48
2021/10/04 04:40:41;;;;;;;1.20;1.10;;;15.60;99.90;;;;;;5014982;28;20034;-53
2021/10/04 04:43:06;;;;;;;0.93;0.90;;;15.50;99.90;;;;;;5015115;28;20061;-51
2021/10/04 04:45:32;;;;;;;3.63;1.30;;;15.60;99.90;;;;;;5022642;28;20033;-50
2021/10/04 04:47:57;;;;;;;1.10;1.00;;;15.50;99.90;;;;;;5034565;28;20026;-52
2021/10/04 04:50:23;;;;;;;1.67;1.48;;;15.50;99.90;;;;;;5034499;28;20018;-50
2021/10/04 04:52:49;;;;;;;2.42;1.08;;;15.50;99.90;;;;;;5033603;28;20114;-50
2021/10/04 04:55:15;;;;;;;0.93;0.88;;;15.50;99.90;;;;;;5034431;28;20034;-52
2021/10/04 04:57:41;;;;;;;1.27;1.15;;;15.50;99.90;;;;;;5034134;28;20027;-50
2021/10/04 05:00:09;;;;;;;1.30;1.15;;;15.40;99.90;;;;;;5034235;28;20489;-52
2021/10/04 05:02:37;;;;;;;1.90;1.50;;;15.40;99.90;;;;;;5033138;28;20022;-52
2021/10/04 05:05:05;;;;;;;1.35;1.10;;;15.40;99.90;;;;;;5031298;28;20384;-50
2021/10/04 05:07:30;;;;;;;1.52;1.20;;;15.40;99.90;;;;;;5015785;28;20045;-49
2021/10/04 05:09:56;;;;;;;2.45;1.00;;;15.40;99.90;;;;;;5014576;28;20105;-52
2021/10/04 05:12:21;;;;;;;1.08;0.95;;;15.40;99.90;;;;;;5032953;28;20041;-49
2021/10/04 05:14:47;;;;;;;1.80;1.42;;;15.40;99.90;;;;;;5032815;28;20029;-49
2021/10/04 05:17:12;;;;;;;1.55;1.33;;;15.30;99.90;;;;;;5033624;28;20358;-49
2021/10/04 05:19:38;;;;;;;1.38;1.05;;;15.30;99.90;;;;;;5033959;28;20096;-50
2021/10/04 05:22:03;;;;;;;1.40;1.13;;;15.30;99.90;;;;;;5023513;28;20401;-51
2021/10/04 05:24:29;;;;;;;2.08;1.33;;;15.30;99.90;;;;;;5030636;28;20037;-51
2021/10/04 05:26:56;;;;;;;2.10;0.95;;;15.30;99.90;;;;;;5033788;28;20025;-50
2021/10/04 05:29:23;;;;;;;1.45;1.20;;;15.30;99.90;;;;;;5033764;28;20053;-51
2021/10/04 05:31:49;;;;;;;1.98;1.20;;;15.30;99.90;;;;;;5033883;28;20026;-49
2021/10/04 05:34:14;;;;;;;1.17;1.00;;;15.30;99.90;;;;;;5033781;28;20037;-50
2021/10/04 05:36:40;;;;;;;1.30;0.82;;;15.30;99.90;;;;;;5033818;28;20109;-51
2021/10/04 05:39:05;;;;;;;0.93;0.80;;;15.30;99.90;;;;;;5032241;28;20029;-51
2021/10/04 05:41:31;;;;;;;1.00;0.80;;;15.20;99.90;;;;;;5033787;28;20395;-50
2021/10/04 05:43:56;;;;;;;1.35;0.90;;;15.20;99.90;;;;;;5033616;28;20036;-48
2021/10/04 05:46:22;;;;;;;1.25;0.60;;;15.20;99.90;;;;;;5031606;28;20033;-50
2021/10/04 05:48:48;;;;;;;0.90;0.60;;;15.20;99.90;;;;;;5033012;28;20366;-52
2021/10/04 05:51:14;;;;;;;1.23;0.70;;;15.20;99.90;;;;;;5033602;28;20025;-47
2021/10/04 05:53:39;;;;;;;0.70;0.70;;;15.10;99.90;;;;;;5032214;28;20079;-53
2021/10/04 05:56:05;;;;;;;0.80;0.68;;;15.10;99.90;;;;;;5033433;28;20029;-51
2021/10/04 05:58:31;;;;;;;0.75;0.60;;;15.10;99.90;;;;;;5033468;28;20108;-50
2021/10/04 06:00:56;;;;;;;1.33;0.70;;;15.20;99.90;;;;;;5033067;28;20032;-51
2021/10/04 06:03:22;;;;;;;1.20;0.90;;;15.10;99.90;;;;;;5033265;28;20064;-52
2021/10/04 06:05:48;;;;;;;1.27;0.77;;;15.10;99.90;;;;;;5004646;28;20481;-49
2021/10/04 06:08:13;;;;;;;1.10;0.70;;;15.20;99.90;;;;;;5004128;28;20049;-51
2021/10/04 06:10:39;;;;;;;1.15;0.70;;;15.20;99.90;;;;;;5021356;28;20385;-53
2021/10/04 06:13:04;;;;;;;1.10;0.70;;;15.20;99.90;;;;;;5033305;28;20464;-51
2021/10/04 06:15:30;;;;;;;1.70;0.75;;;15.20;99.90;;;;;;5016259;28;20030;-49
2021/10/04 06:17:55;;;;;;;1.08;0.70;;;15.20;99.90;;;;;;5013378;28;20030;-53
2021/10/04 06:20:21;;;;;;;0.85;0.57;;;15.20;99.90;;;;;;5013343;28;20034;-51
2021/10/04 06:22:47;;;;;;;1.10;0.60;;;15.20;99.90;;;;;;5012223;28;20041;-52
2021/10/04 06:25:15;;;;;;;0.57;0.47;;;15.20;99.90;;;;;;5013144;28;20029;-53
2021/10/04 06:27:41;;;;;;;0.75;0.73;;;15.30;99.90;;;;;;5013280;28;20080;-48
2021/10/04 06:30:08;;;;;;;0.63;0.47;;;15.30;99.90;;;;;;5012021;28;20088;-50
2021/10/04 06:32:35;;;;;;;0.68;0.45;;;15.20;99.90;;;;;;5013174;28;20036;-49
2021/10/04 06:35:00;;;;;;;1.80;0.52;;;15.30;99.90;;;;;;5012976;28;20370;-53
2021/10/04 06:37:26;;;;;;;0.43;0.38;;;15.30;99.90;;;;;;5012200;28;20066;-50
2021/10/04 06:39:51;;;;;;;0.35;0.35;;;15.30;99.90;;;;;;5012882;28;20038;-52
2021/10/04 06:42:17;;;;;;;0.90;0.50;;;15.30;99.90;;;;;;5013075;28;20057;-49
2021/10/04 06:44:43;;;;;;;0.80;0.60;;;15.30;99.90;;;;;;5012885;28;20382;-50
2021/10/04 06:47:08;;;;;;;0.57;0.47;;;15.30;99.90;;;;;;5012885;28;20033;-48
2021/10/04 06:49:34;;;;;;;1.38;0.70;;;15.40;99.90;;;;;;5029890;28;20361;-51
2021/10/04 06:52:02;;;;;;;0.52;0.43;;;15.40;99.90;;;;;;5032572;28;20076;-52
2021/10/04 06:54:27;;;;;;;1.45;0.57;;;15.40;99.90;;;;;;5031549;28;20404;-51
2021/10/04 06:56:53;;;;;;;0.45;0.45;;;15.40;99.90;;;;;;5032560;28;20071;-49
2021/10/04 06:59:18;;;;;;;0.80;0.32;;;15.50;99.90;;;;;;5032486;28;20535;-52
2021/10/04 07:01:44;;;;;;;0.77;0.20;;;15.50;99.90;;;;;;5032075;28;20389;-52
2021/10/04 07:04:09;;;;;;;0.85;0.32;;;15.50;99.90;;;;;;5032625;28;20484;-48
2021/10/04 07:06:35;;;;;;;0.32;0.32;;;15.50;99.90;;;;;;5032307;28;20104;-52
2021/10/04 07:09:00;;;;;;;0.40;0.40;;;15.50;99.90;;;;;;5031308;28;20380;-49
2021/10/04 07:11:26;;;;;;;1.13;0.43;;;15.50;99.90;;;;;;5032294;28;20022;-48
2021/10/04 07:13:52;;;;;;;1.63;0.50;;;15.60;99.90;;;;;;5029042;28;20038;-48
2021/10/04 07:16:17;;;;;;;0.70;0.60;;;15.60;99.90;;;;;;5017480;28;20113;-54
2021/10/04 07:18:43;;;;;;;0.80;0.70;;;15.60;99.90;;;;;;5012588;28;20021;-50
2021/10/04 07:21:09;;;;;;;1.00;0.60;;;15.50;99.90;;;;;;5012509;28;20054;-50
2021/10/04 07:23:35;;;;;;;0.80;0.47;;;15.60;99.90;;;;;;5011665;28;20053;-50
2021/10/04 07:26:00;;;;;;;0.73;0.50;;;15.60;99.90;;;;;;5012397;28;20461;-52
2021/10/04 07:28:26;;;;;;;0.75;0.60;;;15.60;99.90;;;;;;5012681;28;20030;-52
2021/10/04 07:30:51;;;;;;;1.23;0.50;;;15.70;99.90;;;;;;5012460;28;20497;-49
2021/10/04 07:33:17;;;;;;;0.60;0.60;;;15.70;99.90;;;;;;5012465;28;20022;-48
2021/10/04 07:35:43;;;;;;;2.30;0.50;;;15.70;99.90;;;;;;5012433;28;20030;-52
2021/10/04 07:38:08;;;;;;;0.45;0.40;;;15.80;99.90;;;;;;5011267;28;20037;-47
2021/10/04 07:40:34;;;;;;;0.60;0.47;;;15.80;99.90;;;;;;5012401;28;20041;-51
2021/10/04 07:42:59;;;;;;;0.63;0.38;;;15.90;99.90;;;;;;5012411;28;20105;-50
2021/10/04 07:45:25;;;;;;;1.85;0.52;;;16.00;99.90;;;;;;5012344;28;20480;-50
2021/10/04 07:47:51;;;;;;;1.77;0.38;;;16.00;99.90;;;;;;5015457;28;20425;-52
2021/10/04 07:50:17;;;;;;;0.32;0.32;;;16.10;99.90;;;;;;5032084;28;20022;-51
2021/10/04 07:52:44;;;;;;;0.52;0.40;;;16.10;99.90;;;;;;5030989;28;20029;-53
2021/10/04 07:55:13;;;;;;;0.77;0.45;;;16.10;99.90;;;;;;5031994;28;20030;-48
2021/10/04 07:57:38;;;;;;;0.13;0.13;;;16.20;99.90;;;;;;5032199;28;20026;-49
2021/10/04 08:00:07;;;;;;;0.50;0.40;;;16.20;99.90;;;;;;5031776;28;20028;-51
2021/10/04 08:02:33;;;;;;;0.57;0.30;;;16.30;99.90;;;;;;5031870;28;20108;-53
2021/10/04 08:04:59;;;;;;;0.50;0.40;;;16.30;99.90;;;;;;5031710;28;20113;-49
2021/10/04 08:07:24;;;;;;;1.75;0.40;;;16.40;99.90;;;;;;5030834;28;20120;-51
2021/10/04 08:09:50;;;;;;;1.88;0.52;;;16.30;99.90;;;;;;5031806;28;20533;-53
2021/10/04 08:12:15;;;;;;;1.50;0.70;;;16.40;99.90;;;;;;5034472;28;20393;-54
2021/10/04 08:14:41;;;;;;;0.82;0.30;;;16.40;99.90;;;;;;5025410;28;20034;-52
2021/10/04 08:17:06;;;;;;;0.52;0.40;;;16.40;99.90;;;;;;5015549;28;20029;-50
2021/10/04 08:19:32;;;;;;;0.30;0.30;;;16.30;99.90;;;;;;5015466;28;20038;-50
2021/10/04 08:21:57;;;;;;;0.30;0.30;;;16.40;99.90;;;;;;5015192;28;20053;-49
2021/10/04 08:24:23;;;;;;;1.08;0.32;;;16.40;99.90;;;;;;5014552;28;20018;-49
2021/10/04 08:26:49;;;;;;;0.38;0.38;;;16.30;99.90;;;;;;5015434;28;20101;-51
2021/10/04 08:29:15;;;;;;;0.68;0.40;;;16.30;99.90;;;;;;5015480;28;20057;-49
2021/10/04 08:31:41;;;;;;;0.30;0.30;;;16.20;99.90;;;;;;5015328;28;20067;-52
2021/10/04 08:34:06;;;;;;;1.80;0.50;;;16.20;99.90;;;;;;5015201;28;20026;-50
2021/10/04 08:36:34;;;;;;;0.13;0.10;;;16.20;99.90;;;;;;5015066;28;20065;-51
2021/10/04 08:39:00;;;;;;;1.15;0.25;;;16.20;99.90;;;;;;5015376;28;20044;-50
2021/10/04 08:41:26;;;;;;;0.30;0.30;;;16.10;99.90;;;;;;5034768;28;20021;-49
2021/10/04 08:43:54;;;;;;;2.55;0.30;;;16.10;99.90;;;;;;5034987;28;20036;-53
2021/10/04 08:46:21;;;;;;;1.65;0.38;;;16.00;99.90;;;;;;5034797;28;20025;-51
2021/10/04 08:48:48;;;;;;;0.35;0.22;;;16.00;99.90;;;;;;5034062;28;20389;-52
2021/10/04 08:51:14;;;;;;;0.47;0.40;;;16.10;99.90;;;;;;5034063;28;20049;-51
2021/10/04 08:53:40;;;;;;;1.70;0.30;;;16.10;99.90;;;;;;5032320;28;20481;-53
2021/10/04 08:56:07;;;;;;;0.20;0.20;;;16.10;99.90;;;;;;5034548;28;20033;-51
2021/10/04 08:58:33;;;;;;;2.05;0.30;;;16.10;99.90;;;;;;5032478;28;20067;-55
2021/10/04 09:00:59;;;;;;;0.30;0.30;;;16.10;99.90;;;;;;5027045;28;20072;-52
2021/10/04 09:03:25;;;;;;;0.77;0.57;;;16.10;99.90;;;;;;5015293;28;20083;-53
2021/10/04 09:05:57;;;;;;;1.13;0.63;;;16.20;99.90;;;;;;5019917;28;20060;-56
2021/10/04 09:08:22;;;;;;;1.05;0.52;;;16.20;99.90;;;;;;5033293;28;20037;-56
2021/10/04 09:10:55;;;;;;;1.30;0.60;;;16.20;99.90;;;;;;5032938;28;20037;-53
2021/10/04 09:13:21;;;;;;;0.77;0.63;;;16.20;99.90;;;;;;5033116;28;20021;-51
2021/10/04 09:15:48;;;;;;;1.15;0.73;;;16.30;99.90;;;;;;5020903;28;20032;-51
2021/10/04 09:18:30;;;;;;;2.10;0.82;;;16.40;99.90;;;;;;5026091;28;20029;-47
2021/10/04 09:21:05;;;;;;;0.43;0.43;;;16.40;99.90;;;;;;5030683;28;20492;-53
2021/10/04 09:23:56;;;;;;;1.00;0.60;;;16.50;99.90;;;;;;5032134;28;20026;-53
2021/10/04 09:26:24;;;;;;;1.13;0.50;;;16.60;99.90;;;;;;5032749;28;20037;-52
2021/10/04 09:29:00;;;;;;;0.88;0.50;;;16.60;99.90;;;;;;5016869;28;20033;-52
2021/10/04 09:31:29;;;;;;;2.67;0.50;;;16.60;99.90;;;;;;5018715;28;20495;-48
2021/10/04 09:34:16;;;;;;;4.43;0.60;;;16.60;99.90;;;;;;5033883;28;20029;-51
2021/10/04 09:36:54;;;;;;;0.68;0.47;;;16.70;99.90;;;;;;5033485;28;20029;-51
2021/10/04 09:39:22;;;;;;;0.52;0.30;;;16.80;99.90;;;;;;5019280;28;20421;-50
2021/10/04 09:42:13;;;;;;;1.05;0.68;;;16.80;99.90;;;;;;5015054;28;20038;-49
2021/10/04 09:44:52;;;;;;;1.42;1.00;;;16.90;99.90;;;;;;5013730;28;20037;-47
2021/10/04 09:47:22;;;;;;;0.82;0.80;;;17.00;99.90;;;;;;5013516;28;20417;-53
2021/10/04 09:49:56;;;;;;;1.20;0.90;;;17.10;99.90;;;;;;5032611;28;20029;-51
2021/10/04 09:52:49;;;;;;;3.05;0.77;;;17.20;99.90;;;;;;5032145;28;20017;-52
2021/10/04 09:55:35;;;;;;;1.58;0.68;;;17.40;99.90;;;;;;5031950;28;20032;-49
2021/10/04 09:58:12;;;;;;;0.85;0.60;;;17.50;99.90;;;;;;5024798;28;20037;-54
2021/10/04 10:00:42;;;;;;;0.70;0.55;;;17.90;99.90;;;;;;5031309;28;20164;-54
2021/10/04 10:03:09;;;;;;;2.97;0.70;;;18.10;99.90;;;;;;5033067;28;20171;-50
2021/10/04 10:05:38;;;;;;;1.60;0.60;;;18.30;99.90;;;;;;5030275;28;20477;-52
2021/10/04 10:08:05;;;;;;;0.82;0.50;;;18.50;99.90;;;;;;5025213;28;20057;-53
2021/10/04 10:10:30;;;;;;;0.82;0.68;;;18.70;99.90;;;;;;5030736;28;20029;-56
2021/10/04 10:12:57;;;;;;;1.45;0.88;;;18.90;99.90;;;;;;5032819;28;20018;-50
2021/10/04 10:15:27;;;;;;;2.10;0.82;;;18.80;99.90;;;;;;5026780;28;20029;-49
2021/10/04 10:18:01;;;;;;;3.15;1.00;;;18.70;99.90;;;;;;5013200;28;20025;-50
2021/10/04 10:20:27;;;;;;;1.20;0.50;;;18.70;99.90;;;;;;5017443;28;20063;-48
2021/10/04 10:22:53;;;;;;;2.35;0.60;;;18.50;99.90;;;;;;5031836;28;20033;-50
2021/10/04 10:25:38;;;;;;;2.58;0.75;;;18.40;96.20;;;;;;5032897;28;20033;-50
2021/10/04 10:28:25;;;;;;;0.82;0.60;;;18.20;98.80;;;;;;5032633;28;20020;-50
2021/10/04 10:30:52;;;;;;;3.47;1.00;;;18.10;99.90;;;;;;5032735;28;20548;-53
2021/10/04 10:33:47;;;;;;;4.85;0.60;;;18.10;99.90;;;;;;5032691;28;20362;-51
2021/10/04 10:36:59;;;;;;;1.25;0.80;;;18.10;97.10;;;;;;5032464;28;20083;-52
2021/10/04 10:39:32;;;;;;;0.73;0.57;;;18.20;99.00;;;;;;5015330;28;20041;-53
2021/10/04 10:42:08;;;;;;;1.55;0.80;;;18.30;99.90;;;;;;5032605;28;20105;-49
2021/10/04 10:44:34;;;;;;;2.13;0.80;;;18.30;99.50;;;;;;5032775;28;20021;-50
2021/10/04 10:46:59;;;;;;;1.75;0.60;;;18.30;99.90;;;;;;5032851;28;20151;-50
2021/10/04 10:50:19;;;;;;;2.55;0.90;;;18.20;99.90;;;;;;5031501;28;20021;-52
2021/10/04 10:53:12;;;;;;;1.70;1.00;;;18.20;99.00;;;;;;5001729;28;20535;-53
2021/10/04 10:55:59;;;;;;;2.25;0.68;;;18.20;97.30;;;;;;5015616;28;20473;-54
2021/10/04 10:58:26;;;;;;;;;;;18.20;99.90;;;;;;5013105;28;20386;-51
2021/10/04 11:01:20;;;;;;;2.40;0.60;;;18.30;95.70;;;;;;5012656;28;19910;-49
2021/10/04 11:03:49;;;;;;;3.83;0.93;;;18.40;99.90;;;;;;5007975;28;20041;-48
2021/10/04 11:06:15;;;;;;;2.83;0.52;;;18.50;99.10;;;;;;5012614;28;20080;-50
2021/10/04 11:08:45;;;;;;;2.40;0.80;;;18.40;98.30;;;;;;5012522;28;20129;-51
2021/10/04 11:11:13;;;;;;;2.03;0.80;;;18.30;97.20;;;;;;5012396;28;20026;-52
2021/10/04 11:13:57;;;;;;;0.95;0.60;;;18.20;97.60;;;;;;5013951;28;20026;-54
2021/10/04 11:16:23;;;;;;;1.38;0.68;;;18.20;97.10;;;;;;5030721;28;20025;-55
2021/10/04 11:18:49;;;;;;;2.65;1.00;;;18.10;97.30;;;;;;5032106;28;20093;-49
2021/10/04 11:21:23;;;;;;;1.95;0.52;;;18.00;95.30;;;;;;5031303;28;20029;-48
2021/10/04 11:24:02;;;;;;;0.68;0.60;;;18.00;96.70;;;;;;5031127;28;20492;-49
2021/10/04 11:26:29;;;;;;;1.00;0.50;;;18.00;96.00;;;;;;5022009;28;20492;-50
2021/10/04 11:28:58;;;;;;;2.58;0.90;;;18.00;97.50;;;;;;5031832;28;20066;-52
2021/10/04 11:31:25;;;;;;;0.60;0.50;;;17.90;97.60;;;;;;5028432;28;20030;-53
2021/10/04 11:33:56;;;;;;;2.97;0.80;;;17.90;97.80;;;;;;5012495;28;20061;-53
2021/10/04 11:36:44;;;;;;;0.95;0.65;;;17.80;98.10;;;;;;5015820;28;20293;-56
2021/10/04 11:39:16;;;;;;;1.33;0.85;;;17.80;98.00;;;;;;5020100;28;20037;-56
2021/10/04 11:41:49;;;;;;;1.90;0.93;;;17.70;97.20;;;;;;5012053;28;20058;-52
2021/10/04 11:44:20;;;;;;;1.27;0.85;;;17.70;96.90;;;;;;5012192;28;20363;-50
2021/10/04 11:46:53;;;;;;;0.70;0.60;;;17.60;97.70;;;;;;5014169;28;20034;-52
2021/10/04 11:49:22;;;;;;;2.65;1.05;;;17.60;98.10;;;;;;5030696;28;20022;-54
2021/10/04 11:51:52;;;;;;;2.03;1.10;;;17.60;98.40;;;;;;5035546;28;20114;-51
2021/10/04 11:54:44;;;;;;;1.90;0.98;;;17.60;97.90;;;;;;5026718;28;20022;-48
2021/10/04 11:57:16;;;;;;;2.28;0.73;;;17.60;97.60;;;;;;5020932;28;20029;-52
2021/10/04 12:00:06;;;;;;;4.97;1.30;;;17.50;98.50;;;;;;5015955;28;20036;-53
2021/10/04 12:02:40;;;;;;;1.98;0.93;;;17.50;97.80;;;;;;5015474;28;20378;-54
2021/10/04 12:05:10;;;;;;;3.40;1.20;;;17.50;98.30;;;;;;5015554;28;20026;-51
2021/10/04 12:07:37;;;;;;;2.17;1.00;;;17.50;98.70;;;;;;5016590;28;20055;-50
2021/10/04 12:10:04;;;;;;;1.98;1.10;;;17.60;98.50;;;;;;5030868;28;20388;-52
2021/10/04 12:12:37;;;;;;;1.42;1.10;;;17.60;98.50;;;;;;5035024;28;20107;-49
2021/10/04 12:15:05;;;;;;;2.92;0.90;;;17.60;97.90;;;;;;5035229;28;20059;-49
2021/10/04 12:17:35;;;;;;;2.25;1.25;;;17.60;98.30;;;;;;5034276;28;20045;-49
2021/10/04 12:20:01;;;;;;;1.08;0.80;;;17.70;98.20;;;;;;5034086;28;20048;-53
2021/10/04 12:22:35;;;;;;;4.03;1.27;;;17.70;98.30;;;;;;5013193;28;20037;-53
2021/10/04 12:25:01;;;;;;;2.55;0.90;;;17.80;97.60;;;;;;5015254;28;20041;-48
2021/10/04 12:27:27;;;;;;;3.00;0.93;;;17.70;97.00;;;;;;5023366;28;20042;-50
2021/10/04 12:30:01;;;;;;;3.58;0.90;;;17.80;96.70;;;;;;5035090;28;20538;-52
2021/10/04 12:32:49;;;;;;;1.77;0.70;;;17.80;95.80;;;;;;5034792;28;20033;-49
2021/10/04 12:35:26;;;;;;;1.85;0.80;;;17.80;94.00;;;;;;5034913;28;20021;-49
2021/10/04 12:37:55;;;;;;;3.40;0.75;;;17.90;94.50;;;;;;5031562;28;20025;-51
2021/10/04 12:40:23;;;;;;;2.92;1.23;;;17.90;95.10;;;;;;5025704;28;20072;-51
2021/10/04 12:42:57;;;;;;;1.88;0.82;;;18.10;94.40;;;;;;5029909;28;20030;-52
2021/10/04 12:45:23;;;;;;;3.78;1.25;;;18.10;94.00;;;;;;5014925;28;20069;-53
2021/10/04 12:47:57;;;;;;;1.83;0.80;;;18.20;93.40;;;;;;5017559;28;20060;-52
2021/10/04 12:50:25;;;;;;;1.75;1.00;;;18.20;91.50;;;;;;5032034;28;20441;-51